sensor_id;sensor_type;location;lat;lon;timestamp;pressure;altitude;pressure_sealevel;temperature;humidity
48968;BME280;46511;53.148;8.204;2022-09-12T00:00:03;101802.00;;;14.33;100.00
48968;BME280;46511;53.148;8.204;2022-09-12T00:02:35;101800.84;;;14.37;100.00
48968;BME280;46511;53.148;8.204;2022-09-12T00:05:07;101794.47;;;14.40;100.00
48968;BME280;46511;53.148;8.204;2022-09-12T00:07:38;101798.66;;;14.45;100.00
48968;BME280;46511;53.148;8.204;2022-09-12T00:10:10;101800.47;;;14.45;100.00
48968;BME280;46511;53.148;8.204;2022-09-12T00:12:41;101795.34;;;14.40;100.00
48968;BME280;46511;53.148;8.204;2022-09-12T00:15:13;101804.47;;;14.36;100.00
48968;BME280;46511;53.148;8.204;2022-09-12T00:17:44;101790.53;;;14.31;100.00
48968;BME280;46511;53.148;8.204;2022-09-12T00:20:15;101788.88;;;14.28;100.00
48968;BME280;46511;53.148;8.204;2022-09-12T00:22:47;101788.97;;;14.27;100.00
48968;BME280;46511;53.148;8.204;2022-09-12T00:25:18;101795.16;;;14.27;100.00
48968;BME280;46511;53.148;8.204;2022-09-12T00:27:50;101789.91;;;14.26;100.00
48968;BME280;46511;53.148;8.204;2022-09-12T00:30:21;101795.06;;;14.29;100.00
48968;BME280;46511;53.148;8.204;2022-09-12T00:32:52;101794.31;;;14.27;100.00
48968;BME280;46511;53.148;8.204;2022-09-12T00:35:24;101779.84;;;14.31;100.00
48968;BME280;46511;53.148;8.204;2022-09-12T00:37:56;101785.34;;;14.28;100.00
48968;BME280;46511;53.148;8.204;2022-09-12T00:40:27;101782.56;;;14.29;100.00
48968;BME280;46511;53.148;8.204;2022-09-12T00:42:58;101773.09;;;14.24;100.00
48968;BME280;46511;53.148;8.204;2022-09-12T00:45:30;101773.44;;;14.18;100.00
48968;BME280;46511;53.148;8.204;2022-09-12T00:48:02;101761.34;;;14.11;100.00
48968;BME280;46511;53.148;8.204;2022-09-12T00:50:34;101762.50;;;14.07;100.00
48968;BME280;46511;53.148;8.204;2022-09-12T00:53:05;101756.19;;;14.08;100.00
48968;BME280;46511;53.148;8.204;2022-09-12T00:55:40;101761.53;;;14.08;100.00
48968;BME280;46511;53.148;8.204;2022-09-12T00:58:16;101757.91;;;14.09;100.00
48968;BME280;46511;53.148;8.204;2022-09-12T01:00:59;101759.16;;;14.03;100.00
48968;BME280;46511;53.148;8.204;2022-09-12T01:03:31;101751.72;;;14.08;100.00
48968;BME280;46511;53.148;8.204;2022-09-12T01:06:04;101740.78;;;14.13;100.00
48968;BME280;46511;53.148;8.204;2022-09-12T01:08:42;101753.44;;;14.09;100.00
48968;BME280;46511;53.148;8.204;2022-09-12T01:11:14;101756.03;;;14.11;100.00
48968;BME280;46511;53.148;8.204;2022-09-12T01:13:41;101756.81;;;14.13;100.00
48968;BME280;46511;53.148;8.204;2022-09-12T01:16:14;101761.53;;;14.08;100.00
48968;BME280;46511;53.148;8.204;2022-09-12T01:30:23;101749.56;;;13.99;100.00
48968;BME280;46511;53.148;8.204;2022-09-12T01:33:14;101748.09;;;13.93;100.00
48968;BME280;46511;53.148;8.204;2022-09-12T01:39:04;101757.47;;;14.00;100.00
48968;BME280;46511;53.148;8.204;2022-09-12T01:41:49;101750.31;;;14.01;100.00
48968;BME280;46511;53.148;8.204;2022-09-12T01:45:23;101750.16;;;13.88;100.00
48968;BME280;46511;53.148;8.204;2022-09-12T01:47:52;101747.94;;;13.96;100.00
48968;BME280;46511;53.148;8.204;2022-09-12T01:50:31;101744.31;;;13.97;100.00
48968;BME280;46511;53.148;8.204;2022-09-12T01:53:07;101747.25;;;13.93;100.00
48968;BME280;46511;53.148;8.204;2022-09-12T01:55:50;101742.13;;;13.88;100.00
48968;BME280;46511;53.148;8.204;2022-09-12T01:58:28;101735.16;;;13.86;100.00
48968;BME280;46511;53.148;8.204;2022-09-12T02:01:13;101726.88;;;13.90;100.00
48968;BME280;46511;53.148;8.204;2022-09-12T02:03:53;101716.38;;;13.87;100.00
48968;BME280;46511;53.148;8.204;2022-09-12T02:06:40;101714.47;;;13.89;100.00
48968;BME280;46511;53.148;8.204;2022-09-12T02:09:19;101712.56;;;13.91;100.00
48968;BME280;46511;53.148;8.204;2022-09-12T02:11:56;101707.31;;;13.90;100.00
48968;BME280;46511;53.148;8.204;2022-09-12T02:14:31;101706.66;;;13.86;100.00
48968;BME280;46511;53.148;8.204;2022-09-12T02:17:12;101696.66;;;13.90;100.00
48968;BME280;46511;53.148;8.204;2022-09-12T02:19:46;101702.06;;;13.88;100.00
48968;BME280;46511;53.148;8.204;2022-09-12T02:22:22;101702.84;;;13.90;100.00
48968;BME280;46511;53.148;8.204;2022-09-12T02:24:58;101702.25;;;13.85;100.00
48968;BME280;46511;53.148;8.204;2022-09-12T02:27:43;101707.75;;;13.82;100.00
48968;BME280;46511;53.148;8.204;2022-09-12T02:30:17;101710.69;;;13.78;100.00
48968;BME280;46511;53.148;8.204;2022-09-12T02:32:54;101710.00;;;13.74;100.00
48968;BME280;46511;53.148;8.204;2022-09-12T02:35:36;101718.25;;;13.69;100.00
48968;BME280;46511;53.148;8.204;2022-09-12T02:41:07;101713.25;;;13.63;100.00
48968;BME280;46511;53.148;8.204;2022-09-12T02:43:39;101713.19;;;13.65;100.00
48968;BME280;46511;53.148;8.204;2022-09-12T02:46:12;101709.78;;;13.61;100.00
48968;BME280;46511;53.148;8.204;2022-09-12T02:48:50;101707.53;;;13.54;100.00
48968;BME280;46511;53.148;8.204;2022-09-12T02:51:23;101696.19;;;13.50;100.00
48968;BME280;46511;53.148;8.204;2022-09-12T02:53:55;101698.16;;;13.47;100.00
48968;BME280;46511;53.148;8.204;2022-09-12T02:56:28;101692.03;;;13.44;100.00
48968;BME280;46511;53.148;8.204;2022-09-12T02:59:04;101686.88;;;13.41;100.00
48968;BME280;46511;53.148;8.204;2022-09-12T03:22:01;101684.56;;;13.51;100.00
48968;BME280;46511;53.148;8.204;2022-09-12T03:25:02;101694.63;;;13.46;100.00
48968;BME280;46511;53.148;8.204;2022-09-12T03:27:48;101686.25;;;13.36;100.00
48968;BME280;46511;53.148;8.204;2022-09-12T03:30:30;101689.34;;;13.29;100.00
48968;BME280;46511;53.148;8.204;2022-09-12T03:33:11;101692.88;;;13.29;100.00
48968;BME280;46511;53.148;8.204;2022-09-12T03:35:47;101695.53;;;13.29;100.00
48968;BME280;46511;53.148;8.204;2022-09-12T03:38:19;101685.63;;;13.31;100.00
48968;BME280;46511;53.148;8.204;2022-09-12T03:40:51;101690.47;;;13.40;100.00
48968;BME280;46511;53.148;8.204;2022-09-12T03:43:22;101688.44;;;13.61;100.00
48968;BME280;46511;53.148;8.204;2022-09-12T03:45:54;101672.91;;;13.36;100.00
48968;BME280;46511;53.148;8.204;2022-09-12T03:48:26;101676.69;;;13.32;100.00
48968;BME280;46511;53.148;8.204;2022-09-12T03:51:04;101676.84;;;13.29;100.00
48968;BME280;46511;53.148;8.204;2022-09-12T03:53:37;101673.44;;;13.43;100.00
48968;BME280;46511;53.148;8.204;2022-09-12T03:56:09;101682.38;;;13.42;100.00
48968;BME280;46511;53.148;8.204;2022-09-12T03:58:36;101679.03;;;13.38;100.00
48968;BME280;46511;53.148;8.204;2022-09-12T04:01:12;101686.69;;;13.44;100.00
48968;BME280;46511;53.148;8.204;2022-09-12T04:03:47;101676.69;;;13.32;100.00
48968;BME280;46511;53.148;8.204;2022-09-12T04:06:20;101675.81;;;13.32;100.00
48968;BME280;46511;53.148;8.204;2022-09-12T04:08:52;101678.53;;;13.48;100.00
48968;BME280;46511;53.148;8.204;2022-09-12T04:11:24;101678.25;;;13.36;100.00
48968;BME280;46511;53.148;8.204;2022-09-12T04:13:56;101675.22;;;13.42;100.00
48968;BME280;46511;53.148;8.204;2022-09-12T04:16:27;101678.09;;;13.39;100.00
48968;BME280;46511;53.148;8.204;2022-09-12T04:18:58;101674.28;;;13.43;100.00
48968;BME280;46511;53.148;8.204;2022-09-12T04:21:30;101674.72;;;13.52;100.00
48968;BME280;46511;53.148;8.204;2022-09-12T04:24:02;101672.06;;;13.52;100.00
48968;BME280;46511;53.148;8.204;2022-09-12T04:26:28;101677.16;;;13.56;100.00
48968;BME280;46511;53.148;8.204;2022-09-12T04:29:01;101671.88;;;13.55;100.00
48968;BME280;46511;53.148;8.204;2022-09-12T04:31:32;101667.94;;;13.46;100.00
48968;BME280;46511;53.148;8.204;2022-09-12T04:33:59;101666.69;;;13.36;100.00
48968;BME280;46511;53.148;8.204;2022-09-12T04:36:31;101668.59;;;13.34;100.00
48968;BME280;46511;53.148;8.204;2022-09-12T04:39:04;101676.72;;;13.48;100.00
48968;BME280;46511;53.148;8.204;2022-09-12T04:41:37;101660.00;;;13.44;100.00
48968;BME280;46511;53.148;8.204;2022-09-12T04:44:11;101670.53;;;13.48;100.00
48968;BME280;46511;53.148;8.204;2022-09-12T04:46:45;101670.97;;;13.56;100.00
48968;BME280;46511;53.148;8.204;2022-09-12T04:49:17;101662.78;;;13.59;100.00
48968;BME280;46511;53.148;8.204;2022-09-12T04:51:51;101665.97;;;13.50;100.00
48968;BME280;46511;53.148;8.204;2022-09-12T04:54:23;101667.84;;;13.48;100.00
48968;BME280;46511;53.148;8.204;2022-09-12T04:56:54;101663.97;;;13.37;100.00
48968;BME280;46511;53.148;8.204;2022-09-12T04:59:26;101662.88;;;13.24;100.00
48968;BME280;46511;53.148;8.204;2022-09-12T05:01:57;101658.44;;;13.40;100.00
48968;BME280;46511;53.148;8.204;2022-09-12T05:04:28;101667.94;;;13.46;100.00
48968;BME280;46511;53.148;8.204;2022-09-12T05:07:01;101663.63;;;13.43;100.00
48968;BME280;46511;53.148;8.204;2022-09-12T05:09:33;101655.69;;;13.42;100.00
48968;BME280;46511;53.148;8.204;2022-09-12T05:12:04;101655.34;;;13.64;100.00
48968;BME280;46511;53.148;8.204;2022-09-12T05:14:37;101658.03;;;13.64;100.00
48968;BME280;46511;53.148;8.204;2022-09-12T05:17:08;101656.94;;;13.68;100.00
48968;BME280;46511;53.148;8.204;2022-09-12T05:19:39;101651.25;;;13.58;100.00
48968;BME280;46511;53.148;8.204;2022-09-12T05:22:11;101657.19;;;13.79;100.00
48968;BME280;46511;53.148;8.204;2022-09-12T05:24:42;101656.34;;;13.94;100.00
48968;BME280;46511;53.148;8.204;2022-09-12T05:27:14;101654.34;;;13.82;100.00
48968;BME280;46511;53.148;8.204;2022-09-12T05:29:46;101661.91;;;14.06;100.00
48968;BME280;46511;53.148;8.204;2022-09-12T05:32:17;101649.94;;;13.97;100.00
48968;BME280;46511;53.148;8.204;2022-09-12T05:34:48;101649.28;;;13.93;100.00
48968;BME280;46511;53.148;8.204;2022-09-12T05:37:20;101652.59;;;14.13;100.00
48968;BME280;46511;53.148;8.204;2022-09-12T05:39:53;101655.97;;;14.16;100.00
48968;BME280;46511;53.148;8.204;2022-09-12T05:42:24;101648.94;;;14.29;100.00
48968;BME280;46511;53.148;8.204;2022-09-12T05:44:56;101649.97;;;14.87;100.00
48968;BME280;46511;53.148;8.204;2022-09-12T05:47:27;101644.47;;;16.69;91.74
48968;BME280;46511;53.148;8.204;2022-09-12T05:49:58;101649.75;;;17.09;86.58
48968;BME280;46511;53.148;8.204;2022-09-12T05:52:30;101650.94;;;18.27;80.29
48968;BME280;46511;53.148;8.204;2022-09-12T05:55:02;101644.97;;;18.24;79.30
48968;BME280;46511;53.148;8.204;2022-09-12T05:57:34;101645.13;;;18.34;77.84
48968;BME280;46511;53.148;8.204;2022-09-12T06:00:02;101645.22;;;19.47;72.00
48968;BME280;46511;53.148;8.204;2022-09-12T06:02:35;101645.47;;;19.78;71.84
48968;BME280;46511;53.148;8.204;2022-09-12T06:05:06;101649.53;;;20.79;66.67
48968;BME280;46511;53.148;8.204;2022-09-12T06:07:38;101654.59;;;19.97;70.44
48968;BME280;46511;53.148;8.204;2022-09-12T06:10:09;101657.75;;;20.78;68.12
48968;BME280;46511;53.148;8.204;2022-09-12T06:12:41;101651.75;;;20.74;66.11
48968;BME280;46511;53.148;8.204;2022-09-12T06:15:13;101653.31;;;20.56;66.57
48968;BME280;46511;53.148;8.204;2022-09-12T06:17:47;101656.94;;;20.02;68.80
48968;BME280;46511;53.148;8.204;2022-09-12T06:20:14;101644.91;;;21.92;63.50
48968;BME280;46511;53.148;8.204;2022-09-12T06:22:45;101637.53;;;22.72;58.72
48968;BME280;46511;53.148;8.204;2022-09-12T06:25:18;101642.91;;;23.75;55.53
48968;BME280;46511;53.148;8.204;2022-09-12T06:27:45;101639.13;;;24.93;52.13
48968;BME280;46511;53.148;8.204;2022-09-12T06:30:17;101634.03;;;26.00;47.16
48968;BME280;46511;53.148;8.204;2022-09-12T06:32:48;101641.03;;;26.11;46.32
48968;BME280;46511;53.148;8.204;2022-09-12T06:35:20;101628.13;;;27.11;45.48
48968;BME280;46511;53.148;8.204;2022-09-12T06:37:46;101632.63;;;27.35;43.86
48968;BME280;46511;53.148;8.204;2022-09-12T06:40:17;101641.28;;;27.38;42.34
48968;BME280;46511;53.148;8.204;2022-09-12T06:42:49;101632.34;;;27.69;41.62
48968;BME280;46511;53.148;8.204;2022-09-12T06:45:20;101627.47;;;26.68;44.49
48968;BME280;46511;53.148;8.204;2022-09-12T06:47:53;101625.69;;;26.99;42.15
48968;BME280;46511;53.148;8.204;2022-09-12T06:50:25;101615.16;;;27.91;40.60
48968;BME280;46511;53.148;8.204;2022-09-12T06:52:56;101608.84;;;28.13;40.46
48968;BME280;46511;53.148;8.204;2022-09-12T06:55:28;101610.78;;;28.28;40.33
48968;BME280;46511;53.148;8.204;2022-09-12T06:58:00;101620.91;;;29.62;36.83
48968;BME280;46511;53.148;8.204;2022-09-12T07:00:31;101619.81;;;28.36;39.61
48968;BME280;46511;53.148;8.204;2022-09-12T07:03:03;101619.63;;;27.84;40.34
48968;BME280;46511;53.148;8.204;2022-09-12T07:05:34;101623.06;;;28.55;39.32
48968;BME280;46511;53.148;8.204;2022-09-12T07:08:05;101617.03;;;29.26;38.32
48968;BME280;46511;53.148;8.204;2022-09-12T07:10:36;101622.84;;;29.82;38.70
48968;BME280;46511;53.148;8.204;2022-09-12T07:13:08;101616.69;;;29.59;41.12
48968;BME280;46511;53.148;8.204;2022-09-12T07:15:39;101622.06;;;29.38;38.63
48968;BME280;46511;53.148;8.204;2022-09-12T07:18:10;101613.72;;;30.33;36.63
48968;BME280;46511;53.148;8.204;2022-09-12T07:20:42;101612.47;;;29.78;37.62
48968;BME280;46511;53.148;8.204;2022-09-12T07:23:13;101616.28;;;29.03;38.88
48968;BME280;46511;53.148;8.204;2022-09-12T07:25:51;101618.38;;;28.63;40.62
48968;BME280;46511;53.148;8.204;2022-09-12T07:28:25;101626.13;;;27.36;43.76
48968;BME280;46511;53.148;8.204;2022-09-12T07:30:57;101621.44;;;25.99;48.04
48968;BME280;46511;53.148;8.204;2022-09-12T07:33:38;101616.91;;;24.54;53.53
48968;BME280;46511;53.148;8.204;2022-09-12T07:36:11;101616.19;;;23.80;57.67
48968;BME280;46511;53.148;8.204;2022-09-12T07:38:44;101626.94;;;23.07;60.80
48968;BME280;46511;53.148;8.204;2022-09-12T07:41:18;101625.28;;;22.68;63.18
48968;BME280;46511;53.148;8.204;2022-09-12T07:43:54;101621.97;;;21.87;67.32
48968;BME280;46511;53.148;8.204;2022-09-12T07:46:22;101620.22;;;21.66;69.69
48968;BME280;46511;53.148;8.204;2022-09-12T07:48:56;101626.66;;;22.81;66.06
48968;BME280;46511;53.148;8.204;2022-09-12T07:51:23;101626.44;;;22.85;63.56
48968;BME280;46511;53.148;8.204;2022-09-12T07:53:56;101623.63;;;22.09;66.35
48968;BME280;46511;53.148;8.204;2022-09-12T07:56:28;101624.41;;;22.00;66.49
48968;BME280;46511;53.148;8.204;2022-09-12T07:59:00;101631.19;;;20.62;73.61
48968;BME280;46511;53.148;8.204;2022-09-12T08:01:31;101626.69;;;20.31;76.21
48968;BME280;46511;53.148;8.204;2022-09-12T08:04:02;101635.16;;;20.58;75.86
48968;BME280;46511;53.148;8.204;2022-09-12T08:06:35;101627.72;;;20.18;77.56
48968;BME280;46511;53.148;8.204;2022-09-12T08:09:02;101628.38;;;20.32;77.71
48968;BME280;46511;53.148;8.204;2022-09-12T08:11:35;101639.44;;;20.29;77.98
48968;BME280;46511;53.148;8.204;2022-09-12T08:14:06;101636.94;;;20.69;76.70
48968;BME280;46511;53.148;8.204;2022-09-12T08:16:37;101638.59;;;21.11;74.29
48968;BME280;46511;53.148;8.204;2022-09-12T08:19:09;101637.91;;;21.40;72.77
48968;BME280;46511;53.148;8.204;2022-09-12T08:21:40;101638.78;;;21.90;71.33
48968;BME280;46511;53.148;8.204;2022-09-12T08:24:11;101635.13;;;22.49;67.30
48968;BME280;46511;53.148;8.204;2022-09-12T08:26:42;101636.69;;;22.62;67.21
48968;BME280;46511;53.148;8.204;2022-09-12T08:29:14;101634.94;;;22.80;66.01
48968;BME280;46511;53.148;8.204;2022-09-12T08:31:45;101632.75;;;22.37;67.63
48968;BME280;46511;53.148;8.204;2022-09-12T08:34:16;101632.72;;;22.46;67.98
48968;BME280;46511;53.148;8.204;2022-09-12T08:36:49;101628.44;;;22.24;69.14
48968;BME280;46511;53.148;8.204;2022-09-12T08:39:21;101631.59;;;22.39;67.59
48968;BME280;46511;53.148;8.204;2022-09-12T08:41:57;101628.69;;;22.79;66.77
48968;BME280;46511;53.148;8.204;2022-09-12T08:52:59;101614.16;;;23.55;63.61
48968;BME280;46511;53.148;8.204;2022-09-12T08:55:39;101606.94;;;24.62;58.50
48968;BME280;46511;53.148;8.204;2022-09-12T09:09:05;101602.94;;;24.13;61.14
48968;BME280;46511;53.148;8.204;2022-09-12T09:11:50;101609.25;;;24.49;60.03
48968;BME280;46511;53.148;8.204;2022-09-12T09:20:16;101604.88;;;23.85;63.58
48968;BME280;46511;53.148;8.204;2022-09-12T09:22:54;101599.75;;;24.53;59.89
48968;BME280;46511;53.148;8.204;2022-09-12T09:31:13;101603.47;;;23.81;61.69
48968;BME280;46511;53.148;8.204;2022-09-12T09:33:41;101595.91;;;24.38;59.92
48968;BME280;46511;53.148;8.204;2022-09-12T09:44:28;101598.22;;;24.33;58.37
48968;BME280;46511;53.148;8.204;2022-09-12T09:47:00;101586.53;;;25.02;56.45
48968;BME280;46511;53.148;8.204;2022-09-12T09:49:32;101585.09;;;24.28;58.95
48968;BME280;46511;53.148;8.204;2022-09-12T09:51:59;101583.88;;;24.40;58.49
48968;BME280;46511;53.148;8.204;2022-09-12T10:00:24;101582.88;;;23.33;62.28
48968;BME280;46511;53.148;8.204;2022-09-12T10:11:17;101571.44;;;25.08;55.74
48968;BME280;46511;53.148;8.204;2022-09-12T10:16:28;101565.91;;;27.76;46.07
48968;BME280;46511;53.148;8.204;2022-09-12T10:19:04;101551.47;;;31.65;36.49
48968;BME280;46511;53.148;8.204;2022-09-12T10:21:40;101548.97;;;29.89;39.59
48968;BME280;46511;53.148;8.204;2022-09-12T10:24:22;101550.84;;;28.49;41.62
48968;BME280;46511;53.148;8.204;2022-09-12T10:27:08;101548.13;;;28.49;41.37
48968;BME280;46511;53.148;8.204;2022-09-12T10:29:48;101548.25;;;26.61;46.15
48968;BME280;46511;53.148;8.204;2022-09-12T10:32:27;101544.66;;;24.95;50.82
48968;BME280;46511;53.148;8.204;2022-09-12T10:35:00;101533.59;;;25.73;49.37
48968;BME280;46511;53.148;8.204;2022-09-12T10:37:35;101528.91;;;25.41;48.39
48968;BME280;46511;53.148;8.204;2022-09-12T10:40:19;101545.13;;;25.16;48.17
48968;BME280;46511;53.148;8.204;2022-09-12T10:42:56;101545.22;;;25.32;48.26
48968;BME280;46511;53.148;8.204;2022-09-12T10:45:29;101543.63;;;25.72;47.55
48968;BME280;46511;53.148;8.204;2022-09-12T10:48:23;101536.66;;;27.85;41.15
48968;BME280;46511;53.148;8.204;2022-09-12T10:50:55;101542.69;;;29.38;37.11
48968;BME280;46511;53.148;8.204;2022-09-12T10:53:28;101530.31;;;29.27;36.78
48968;BME280;46511;53.148;8.204;2022-09-12T10:56:14;101531.34;;;28.52;38.85
48968;BME280;46511;53.148;8.204;2022-09-12T11:01:45;101534.44;;;26.71;42.93
48968;BME280;46511;53.148;8.204;2022-09-12T11:07:24;101514.94;;;26.98;42.71
48968;BME280;46511;53.148;8.204;2022-09-12T11:11:06;101536.84;;;26.74;42.59
48968;BME280;46511;53.148;8.204;2022-09-12T11:16:25;101515.09;;;26.01;45.22
48968;BME280;46511;53.148;8.204;2022-09-12T11:22:10;101525.09;;;25.84;45.15
48968;BME280;46511;53.148;8.204;2022-09-12T11:33:52;101509.94;;;27.49;39.78
48968;BME280;46511;53.148;8.204;2022-09-12T11:36:42;101512.94;;;28.08;39.07
48968;BME280;46511;53.148;8.204;2022-09-12T11:39:27;101498.94;;;29.44;35.33
48968;BME280;46511;53.148;8.204;2022-09-12T11:42:16;101500.44;;;29.83;34.95
48968;BME280;46511;53.148;8.204;2022-09-12T11:44:53;101498.41;;;31.65;32.15
48968;BME280;46511;53.148;8.204;2022-09-12T11:47:34;101494.84;;;31.10;32.46
48968;BME280;46511;53.148;8.204;2022-09-12T11:50:14;101495.94;;;29.97;34.55
48968;BME280;46511;53.148;8.204;2022-09-12T11:53:04;101486.34;;;33.43;29.63
48968;BME280;46511;53.148;8.204;2022-09-12T11:55:56;101488.63;;;30.60;32.95
48968;BME280;46511;53.148;8.204;2022-09-12T11:58:28;101489.50;;;28.37;37.34
48968;BME280;46511;53.148;8.204;2022-09-12T12:01:10;101494.81;;;26.99;40.62
48968;BME280;46511;53.148;8.204;2022-09-12T12:03:46;101488.22;;;27.56;39.84
48968;BME280;46511;53.148;8.204;2022-09-12T12:06:44;101489.31;;;27.16;40.72
48968;BME280;46511;53.148;8.204;2022-09-12T12:09:17;101481.41;;;28.43;38.41
48968;BME280;46511;53.148;8.204;2022-09-12T12:11:49;101469.66;;;31.47;32.99
48968;BME280;46511;53.148;8.204;2022-09-12T12:14:28;101469.72;;;32.40;30.71
48968;BME280;46511;53.148;8.204;2022-09-12T12:17:11;101466.50;;;33.66;28.37
48968;BME280;46511;53.148;8.204;2022-09-12T12:19:46;101455.84;;;34.01;27.48
48968;BME280;46511;53.148;8.204;2022-09-12T12:22:26;101454.25;;;35.70;25.48
48968;BME280;46511;53.148;8.204;2022-09-12T12:25:01;101448.22;;;35.31;25.95
48968;BME280;46511;53.148;8.204;2022-09-12T12:27:46;101449.66;;;34.49;27.20
48968;BME280;46511;53.148;8.204;2022-09-12T12:38:32;101436.09;;;32.38;28.60
48968;BME280;46511;53.148;8.204;2022-09-12T12:43:49;101430.69;;;30.69;29.95
48968;BME280;46511;53.148;8.204;2022-09-12T12:46:22;101426.25;;;33.27;27.40
48968;BME280;46511;53.148;8.204;2022-09-12T12:52:00;101414.97;;;34.78;25.58
48968;BME280;46511;53.148;8.204;2022-09-12T12:57:20;101419.84;;;33.33;26.51
48968;BME280;46511;53.148;8.204;2022-09-12T13:00:01;101414.59;;;33.24;27.32
48968;BME280;46511;53.148;8.204;2022-09-12T13:02:47;101406.53;;;33.86;26.47
48968;BME280;46511;53.148;8.204;2022-09-12T13:05:23;101411.13;;;33.04;28.16
48968;BME280;46511;53.148;8.204;2022-09-12T13:08:05;101403.56;;;30.81;30.24
48968;BME280;46511;53.148;8.204;2022-09-12T13:10:46;101402.06;;;30.09;30.64
48968;BME280;46511;53.148;8.204;2022-09-12T13:13:22;101399.06;;;31.21;29.71
48968;BME280;46511;53.148;8.204;2022-09-12T13:15:57;101404.31;;;29.14;32.30
48968;BME280;46511;53.148;8.204;2022-09-12T13:18:45;101395.00;;;32.56;27.32
48968;BME280;46511;53.148;8.204;2022-09-12T13:21:19;101388.16;;;31.81;27.61
48968;BME280;46511;53.148;8.204;2022-09-12T13:24:05;101383.03;;;33.84;27.51
48968;BME280;46511;53.148;8.204;2022-09-12T13:26:44;101381.66;;;35.21;24.32
48968;BME280;46511;53.148;8.204;2022-09-12T13:29:21;101377.78;;;31.83;28.92
48968;BME280;46511;53.148;8.204;2022-09-12T13:31:55;101377.38;;;34.77;25.83
48968;BME280;46511;53.148;8.204;2022-09-12T13:34:34;101367.47;;;35.47;24.76
48968;BME280;46511;53.148;8.204;2022-09-12T13:39:59;101357.28;;;31.92;28.40
48968;BME280;46511;53.148;8.204;2022-09-12T13:43:12;101353.63;;;32.83;27.35
48968;BME280;46511;53.148;8.204;2022-09-12T13:45:45;101342.50;;;32.64;28.18
48968;BME280;46511;53.148;8.204;2022-09-12T13:48:20;101346.59;;;30.96;29.94
48968;BME280;46511;53.148;8.204;2022-09-12T13:50:56;101345.22;;;30.18;30.59
48968;BME280;46511;53.148;8.204;2022-09-12T13:53:40;101346.69;;;30.14;30.95
48968;BME280;46511;53.148;8.204;2022-09-12T13:56:15;101339.22;;;29.30;32.78
48968;BME280;46511;53.148;8.204;2022-09-12T13:58:55;101336.59;;;29.93;31.92
48968;BME280;46511;53.148;8.204;2022-09-12T14:01:36;101327.59;;;30.82;30.13
48968;BME280;46511;53.148;8.204;2022-09-12T14:04:16;101340.38;;;31.22;29.86
48968;BME280;46511;53.148;8.204;2022-09-12T14:07:14;101339.53;;;31.68;28.37
48968;BME280;46511;53.148;8.204;2022-09-12T14:09:54;101343.19;;;29.28;32.59
48968;BME280;46511;53.148;8.204;2022-09-12T14:12:31;101335.78;;;30.27;32.24
48968;BME280;46511;53.148;8.204;2022-09-12T14:15:13;101329.94;;;28.89;32.96
48968;BME280;46511;53.148;8.204;2022-09-12T14:17:48;101331.91;;;27.01;35.54
48968;BME280;46511;53.148;8.204;2022-09-12T14:20:22;101327.28;;;26.71;36.40
48968;BME280;46511;53.148;8.204;2022-09-12T14:22:54;101329.72;;;27.43;35.08
48968;BME280;46511;53.148;8.204;2022-09-12T14:25:25;101318.22;;;27.85;34.38
48968;BME280;46511;53.148;8.204;2022-09-12T14:28:00;101316.94;;;28.40;33.58
48968;BME280;46511;53.148;8.204;2022-09-12T14:30:32;101313.03;;;29.21;32.40
48968;BME280;46511;53.148;8.204;2022-09-12T14:35:52;101305.69;;;30.06;31.89
48968;BME280;46511;53.148;8.204;2022-09-12T14:38:40;101298.13;;;31.43;29.78
48968;BME280;46511;53.148;8.204;2022-09-12T14:41:09;101295.34;;;32.03;28.11
48968;BME280;46511;53.148;8.204;2022-09-12T14:43:44;101288.59;;;28.11;33.77
48968;BME280;46511;53.148;8.204;2022-09-12T14:46:17;101296.56;;;28.42;33.32
48968;BME280;46511;53.148;8.204;2022-09-12T14:48:52;101288.16;;;28.95;32.78
48968;BME280;46511;53.148;8.204;2022-09-12T14:51:27;101285.03;;;27.96;34.70
48968;BME280;46511;53.148;8.204;2022-09-12T14:54:02;101281.31;;;28.48;34.19
48968;BME280;46511;53.148;8.204;2022-09-12T15:07:42;101273.09;;;26.99;36.30
48968;BME280;46511;53.148;8.204;2022-09-12T15:15:40;101281.38;;;26.60;36.97
48968;BME280;46511;53.148;8.204;2022-09-12T15:18:11;101276.72;;;25.98;38.22
48968;BME280;46511;53.148;8.204;2022-09-12T15:20:44;101273.44;;;26.03;38.23
48968;BME280;46511;53.148;8.204;2022-09-12T15:26:03;101269.63;;;26.59;37.64
48968;BME280;46511;53.148;8.204;2022-09-12T15:28:35;101258.31;;;26.70;37.29
48968;BME280;46511;53.148;8.204;2022-09-12T15:31:14;101264.91;;;26.99;37.02
48968;BME280;46511;53.148;8.204;2022-09-12T15:33:48;101267.00;;;26.74;37.24
48968;BME280;46511;53.148;8.204;2022-09-12T15:36:20;101273.56;;;25.54;40.22
48968;BME280;46511;53.148;8.204;2022-09-12T15:38:53;101264.69;;;25.68;40.09
48968;BME280;46511;53.148;8.204;2022-09-12T15:44:11;101253.47;;;25.79;40.33
48968;BME280;46511;53.148;8.204;2022-09-12T15:46:43;101249.75;;;25.48;41.34
48968;BME280;46511;53.148;8.204;2022-09-12T15:49:14;101252.03;;;26.00;40.49
48968;BME280;46511;53.148;8.204;2022-09-12T15:51:45;101247.84;;;25.64;41.15
48968;BME280;46511;53.148;8.204;2022-09-12T15:54:17;101250.63;;;25.40;42.08
48968;BME280;46511;53.148;8.204;2022-09-12T15:56:49;101248.41;;;25.44;41.95
48968;BME280;46511;53.148;8.204;2022-09-12T15:59:20;101246.34;;;25.70;41.50
48968;BME280;46511;53.148;8.204;2022-09-12T16:01:52;101249.00;;;25.86;41.39
48968;BME280;46511;53.148;8.204;2022-09-12T16:04:25;101244.56;;;25.94;40.37